createdAt,value
2022-08-24T00:00:31.788Z,26.92
2022-08-24T00:02:59.669Z,26.92
2022-08-24T00:05:27.442Z,26.89
2022-08-24T00:07:55.207Z,26.89
2022-08-24T00:10:24.267Z,26.86
2022-08-24T00:12:52.285Z,26.87
2022-08-24T00:15:20.623Z,26.84
2022-08-24T00:17:48.307Z,26.81
2022-08-24T00:20:16.027Z,26.82
2022-08-24T00:22:43.722Z,26.45
2022-08-24T00:25:11.961Z,26.83
2022-08-24T00:27:41.188Z,26.59
2022-08-24T00:30:10.674Z,26.81
2022-08-24T00:32:38.727Z,26.82
2022-08-24T00:35:07.481Z,26.81
2022-08-24T00:37:35.232Z,26.80
2022-08-24T00:40:03.137Z,26.67
2022-08-24T00:42:30.851Z,26.79
2022-08-24T00:44:59.952Z,26.78
2022-08-24T00:47:29.168Z,26.76
2022-08-24T00:49:59.307Z,26.50
2022-08-24T00:52:28.995Z,26.42
2022-08-24T00:54:57.965Z,26.73
2022-08-24T00:57:27.427Z,26.72
2022-08-24T00:59:56.804Z,26.71
2022-08-24T01:02:27.037Z,26.48
2022-08-24T01:04:57.328Z,26.65
2022-08-24T01:07:25.145Z,26.63
2022-08-24T01:09:53.117Z,26.64
2022-08-24T01:12:20.822Z,26.30
2022-08-24T01:14:48.544Z,26.58
2022-08-24T01:17:37.848Z,26.58
2022-08-24T01:20:09.784Z,26.56
2022-08-24T01:22:56.386Z,26.58
2022-08-24T01:25:26.642Z,26.24
2022-08-24T01:30:16.104Z,26.33
2022-08-24T01:32:53.720Z,26.55
2022-08-24T01:35:21.673Z,26.53
2022-08-24T01:37:49.417Z,26.51
2022-08-24T01:40:17.211Z,26.40
2022-08-24T01:42:50.047Z,26.51
2022-08-24T01:45:17.810Z,26.48
2022-08-24T01:47:45.508Z,26.46
2022-08-24T01:50:13.414Z,26.44
2022-08-24T01:53:03.806Z,26.44
2022-08-24T01:55:29.681Z,26.43
2022-08-24T01:57:59.110Z,26.41
2022-08-24T02:00:26.880Z,26.39
2022-08-24T02:02:56.545Z,26.40
2022-08-24T02:05:24.641Z,26.41
2022-08-24T02:07:52.374Z,26.26
2022-08-24T02:10:20.159Z,26.39
2022-08-24T02:12:57.705Z,26.39
2022-08-24T02:15:28.423Z,26.38
2022-08-24T02:17:56.264Z,26.37
2022-08-24T02:20:24.064Z,26.37
2022-08-24T02:22:52.065Z,26.36
2022-08-24T02:25:19.927Z,26.34
2022-08-24T02:27:47.610Z,26.34
2022-08-24T02:30:15.655Z,26.32
2022-08-24T02:32:44.775Z,26.14
2022-08-24T02:35:12.616Z,26.29
2022-08-24T02:37:43.641Z,26.28
2022-08-24T02:40:12.557Z,26.28
2022-08-24T02:42:40.536Z,26.03
2022-08-24T02:45:09.240Z,26.27
2022-08-24T02:47:39.069Z,26.26
2022-08-24T02:50:09.466Z,26.24
2022-08-24T02:52:37.459Z,26.22
2022-08-24T02:55:05.881Z,26.22
2022-08-24T02:57:33.582Z,26.18
2022-08-24T03:00:01.466Z,26.17
2022-08-24T03:02:29.192Z,26.16
2022-08-24T03:04:56.927Z,26.14
2022-08-24T03:07:25.967Z,26.14
2022-08-24T03:09:53.704Z,26.10
2022-08-24T03:12:21.388Z,26.10
2022-08-24T03:14:49.101Z,26.04
2022-08-24T03:17:16.787Z,26.07
2022-08-24T03:19:44.491Z,26.06
2022-08-24T03:22:13.310Z,26.03
2022-08-24T03:24:42.384Z,26.05
2022-08-24T03:27:13.544Z,26.01
2022-08-24T03:29:41.349Z,26.03
2022-08-24T03:32:09.166Z,26.01
2022-08-24T03:34:37.902Z,26.00
2022-08-24T03:37:05.710Z,25.88
2022-08-24T03:39:33.416Z,25.93
2022-08-24T03:42:02.459Z,25.95
2022-08-24T03:44:30.171Z,25.94
2022-08-24T03:46:57.883Z,25.93
2022-08-24T03:49:25.603Z,25.93
2022-08-24T03:51:53.299Z,25.93
2022-08-24T03:54:21.252Z,25.92
2022-08-24T03:56:49.199Z,25.92
2022-08-24T03:59:20.071Z,25.90
2022-08-24T04:01:47.937Z,25.89
2022-08-24T04:04:15.655Z,25.86
2022-08-24T04:06:44.594Z,25.86
2022-08-24T04:09:12.784Z,25.81
2022-08-24T04:11:41.529Z,25.81
2022-08-24T04:14:20.257Z,25.81
2022-08-24T04:16:57.656Z,25.80
2022-08-24T04:19:25.741Z,25.47
2022-08-24T04:21:53.437Z,25.78
2022-08-24T04:24:21.460Z,25.76
2022-08-24T04:26:49.161Z,25.78
2022-08-24T04:29:19.426Z,25.42
2022-08-24T04:31:47.555Z,25.73
2022-08-24T04:34:17.491Z,25.73
2022-08-24T04:36:45.849Z,25.73
2022-08-24T04:39:13.580Z,25.72
2022-08-24T04:41:41.990Z,25.68
2022-08-24T04:44:09.704Z,25.70
2022-08-24T04:46:37.397Z,25.68
2022-08-24T04:49:05.118Z,25.61
2022-08-24T04:51:36.581Z,25.60
2022-08-24T04:54:04.961Z,25.50
2022-08-24T04:56:32.639Z,25.49
2022-08-24T04:59:00.391Z,25.49
2022-08-24T05:01:28.992Z,25.15
2022-08-24T05:03:56.710Z,25.43
2022-08-24T05:06:25.390Z,25.43
2022-08-24T05:08:54.486Z,25.46
2022-08-24T05:11:22.636Z,25.22
2022-08-24T05:13:52.422Z,25.45
2022-08-24T05:16:20.296Z,25.17
2022-08-24T05:18:48.246Z,25.22
2022-08-24T05:21:18.704Z,25.49
2022-08-24T05:23:46.694Z,25.44
2022-08-24T05:26:16.794Z,25.11
2022-08-24T05:28:44.629Z,25.44
2022-08-24T05:31:14.196Z,25.42
2022-08-24T05:33:41.956Z,25.46
2022-08-24T05:36:16.739Z,25.44
2022-08-24T05:38:44.527Z,25.42
2022-08-24T05:41:12.303Z,25.28
2022-08-24T05:43:41.453Z,25.48
2022-08-24T05:46:09.240Z,25.52
2022-08-24T05:48:38.198Z,25.54
2022-08-24T05:51:06.306Z,25.23
2022-08-24T05:53:34.020Z,25.57
2022-08-24T05:56:04.049Z,25.48
2022-08-24T05:58:31.564Z,25.57
2022-08-24T06:01:00.964Z,25.61
2022-08-24T06:03:28.649Z,25.63
2022-08-24T06:05:56.471Z,25.35
2022-08-24T06:08:24.163Z,25.69
2022-08-24T06:10:51.888Z,25.71
2022-08-24T06:13:19.568Z,25.72
2022-08-24T06:16:04.794Z,25.73
2022-08-24T06:18:36.336Z,25.75
2022-08-24T06:21:07.793Z,25.76
2022-08-24T06:23:35.611Z,25.42
2022-08-24T06:26:23.255Z,25.77
2022-08-24T06:28:52.107Z,25.73
2022-08-24T06:31:19.997Z,25.57
2022-08-24T06:33:49.099Z,25.36
2022-08-24T06:36:16.818Z,25.81
2022-08-24T06:38:48.269Z,25.82
2022-08-24T06:41:16.029Z,25.79
2022-08-24T06:43:43.936Z,25.83
2022-08-24T06:46:11.721Z,25.83
2022-08-24T06:48:39.431Z,25.84
2022-08-24T06:51:11.411Z,25.88
2022-08-24T06:53:39.323Z,25.61
2022-08-24T06:56:07.845Z,25.95
2022-08-24T06:58:35.739Z,25.69
2022-08-24T07:01:09.400Z,25.70
2022-08-24T07:03:37.090Z,26.06
2022-08-24T07:06:05.230Z,26.08
2022-08-24T07:08:34.273Z,26.11
2022-08-24T07:11:02.484Z,26.13
2022-08-24T07:13:31.149Z,26.19
2022-08-24T07:15:59.058Z,26.21
2022-08-24T07:18:26.951Z,26.21
2022-08-24T07:20:54.658Z,26.25
2022-08-24T07:23:22.403Z,26.24
2022-08-24T07:26:21.820Z,26.26
2022-08-24T07:28:50.128Z,26.27
2022-08-24T07:31:17.873Z,26.28
2022-08-24T07:33:45.881Z,26.28
2022-08-24T07:36:22.090Z,26.33
2022-08-24T07:38:52.183Z,26.36
2022-08-24T07:41:46.897Z,26.38
2022-08-24T07:44:09.520Z,26.17
2022-08-24T07:46:37.827Z,26.43
2022-08-24T07:49:12.484Z,26.46
2022-08-24T07:51:48.400Z,26.50
2022-08-24T07:54:16.268Z,26.55
2022-08-24T07:56:45.328Z,26.68
2022-08-24T07:59:13.573Z,26.71
2022-08-24T08:01:41.735Z,26.39
2022-08-24T08:04:09.618Z,26.85
2022-08-24T08:06:37.349Z,26.33
2022-08-24T08:09:05.440Z,26.81
2022-08-24T08:11:33.419Z,26.81
2022-08-24T08:14:02.555Z,26.82
2022-08-24T08:16:30.405Z,26.85
2022-08-24T08:19:09.830Z,26.89
2022-08-24T08:22:00.190Z,26.81
2022-08-24T08:24:27.716Z,26.83
2022-08-24T08:26:55.446Z,26.64
2022-08-24T08:29:25.093Z,26.70
2022-08-24T08:31:53.119Z,27.00
2022-08-24T08:34:21.114Z,27.13
2022-08-24T08:36:49.472Z,27.14
2022-08-24T08:39:18.589Z,27.10
2022-08-24T08:41:58.708Z,27.13
2022-08-24T08:44:36.254Z,26.97
2022-08-24T08:47:07.576Z,27.31
2022-08-24T08:49:43.987Z,27.37
2022-08-24T08:52:27.359Z,27.33
2022-08-24T08:55:01.159Z,27.40
2022-08-24T08:57:36.547Z,27.47
2022-08-24T09:00:15.791Z,27.45
2022-08-24T09:03:18.216Z,27.41
2022-08-24T09:05:58.786Z,27.46
2022-08-24T09:08:52.086Z,27.59
2022-08-24T09:11:22.976Z,27.59
2022-08-24T09:14:05.668Z,27.36
2022-08-24T09:16:43.386Z,27.56
2022-08-24T09:19:31.715Z,27.67
2022-08-24T09:22:07.439Z,27.38
2022-08-24T09:25:00.179Z,27.78
2022-08-24T09:27:35.407Z,27.77
2022-08-24T09:30:09.978Z,27.81
2022-08-24T09:32:56.103Z,27.48
2022-08-24T09:35:27.182Z,27.85
2022-08-24T09:38:00.620Z,27.85
2022-08-24T09:40:36.550Z,27.88
2022-08-24T09:43:22.632Z,27.86
2022-08-24T09:46:07.418Z,27.72
2022-08-24T09:48:58.751Z,27.88
2022-08-24T09:51:54.206Z,27.91
2022-08-24T09:54:45.236Z,28.04
2022-08-24T09:57:21.088Z,28.22
2022-08-24T09:59:59.465Z,28.33
2022-08-24T10:02:41.391Z,28.22
2022-08-24T10:05:14.650Z,28.37
2022-08-24T10:07:46.536Z,27.96
2022-08-24T10:10:23.252Z,28.12
2022-08-24T10:12:57.159Z,28.46
2022-08-24T10:15:29.187Z,28.47
2022-08-24T10:18:22.103Z,28.51
2022-08-24T10:20:58.464Z,28.48
2022-08-24T10:23:34.515Z,28.64
2022-08-24T10:26:04.287Z,28.70
2022-08-24T10:28:39.875Z,28.66
2022-08-24T10:31:12.511Z,28.68
2022-08-24T10:33:50.748Z,28.48
2022-08-24T10:36:36.716Z,28.66
2022-08-24T10:39:31.559Z,28.46
2022-08-24T10:42:37.350Z,28.60
2022-08-24T10:45:14.533Z,28.29
2022-08-24T10:47:45.763Z,28.44
2022-08-24T10:50:34.219Z,28.57
2022-08-24T10:53:22.048Z,28.60
2022-08-24T10:55:56.263Z,28.56
2022-08-24T10:58:46.044Z,28.75
2022-08-24T11:01:16.038Z,28.67
2022-08-24T11:03:52.418Z,28.49
2022-08-24T11:06:20.290Z,28.69
2022-08-24T11:08:57.247Z,28.51
2022-08-24T11:11:27.251Z,28.37
2022-08-24T11:13:58.998Z,28.45
2022-08-24T11:16:28.413Z,28.42
2022-08-24T11:18:56.784Z,28.62
2022-08-24T11:21:39.422Z,28.35
2022-08-24T11:24:11.583Z,28.43
2022-08-24T11:26:53.492Z,28.69
2022-08-24T11:29:23.153Z,28.64
2022-08-24T11:31:52.700Z,28.71
2022-08-24T11:34:21.913Z,28.44
2022-08-24T11:36:49.655Z,28.76
2022-08-24T11:39:21.779Z,28.58
2022-08-24T11:41:54.100Z,28.62
2022-08-24T11:44:27.980Z,28.84
2022-08-24T11:46:58.274Z,28.73
2022-08-24T11:49:28.861Z,28.66
2022-08-24T11:52:03.252Z,28.89
2022-08-24T11:54:34.701Z,28.92
2022-08-24T11:57:08.428Z,28.92
2022-08-24T11:59:41.743Z,28.86
2022-08-24T12:02:12.074Z,28.51
2022-08-24T12:04:47.633Z,28.89
2022-08-24T12:07:21.552Z,28.89
2022-08-24T12:10:05.826Z,28.91
2022-08-24T12:12:37.347Z,28.94
2022-08-24T12:15:07.035Z,28.91
2022-08-24T12:17:36.502Z,28.92
2022-08-24T12:20:06.207Z,28.91
2022-08-24T12:22:33.906Z,28.91
2022-08-24T12:25:25.871Z,28.59
2022-08-24T12:27:53.750Z,28.99
2022-08-24T12:30:21.542Z,29.04
2022-08-24T12:32:51.153Z,29.04
2022-08-24T12:35:20.216Z,29.02
2022-08-24T12:37:49.224Z,29.08
2022-08-24T12:40:24.664Z,29.13
2022-08-24T12:42:54.657Z,29.00
2022-08-24T12:45:23.160Z,28.98
2022-08-24T12:47:53.644Z,29.19
2022-08-24T12:50:25.631Z,29.01
2022-08-24T12:53:37.867Z,29.29
2022-08-24T12:56:18.746Z,29.32
2022-08-24T12:59:08.690Z,29.33
2022-08-24T13:01:38.075Z,29.12
2022-08-24T13:04:08.836Z,29.05
2022-08-24T13:06:42.588Z,29.26
2022-08-24T13:09:15.396Z,29.27
2022-08-24T13:11:44.495Z,29.27
2022-08-24T13:14:19.371Z,29.34
2022-08-24T13:16:52.983Z,29.37
2022-08-24T13:19:35.394Z,29.32
2022-08-24T13:22:35.463Z,29.68
2022-08-24T13:25:03.504Z,29.31
2022-08-24T13:28:03.968Z,29.80
2022-08-24T13:30:52.602Z,29.62
2022-08-24T13:33:26.184Z,29.83
2022-08-24T13:35:57.409Z,29.77
2022-08-24T13:38:42.803Z,29.76
2022-08-24T13:41:16.784Z,29.67
2022-08-24T13:43:45.692Z,29.35
2022-08-24T13:46:18.352Z,29.41
2022-08-24T13:48:50.384Z,29.48
2022-08-24T13:51:26.604Z,29.32
2022-08-24T13:54:20.038Z,29.55
2022-08-24T13:57:21.534Z,29.58
2022-08-24T14:00:17.947Z,29.64
2022-08-24T14:02:56.074Z,29.68
2022-08-24T14:05:28.216Z,29.70
2022-08-24T14:08:00.713Z,29.75
2022-08-24T14:10:37.248Z,29.79
2022-08-24T14:13:07.712Z,29.78
2022-08-24T14:15:50.424Z,29.87
2022-08-24T14:18:23.133Z,29.87
2022-08-24T14:20:57.223Z,29.75
2022-08-24T14:23:29.503Z,29.98
2022-08-24T14:26:30.233Z,30.16
2022-08-24T14:29:31.120Z,30.14
2022-08-24T14:32:34.833Z,30.09
2022-08-24T14:35:27.526Z,30.04
2022-08-24T14:38:12.587Z,30.12
2022-08-24T14:40:46.234Z,30.09
2022-08-24T14:43:28.546Z,30.08
2022-08-24T14:46:02.696Z,30.04
2022-08-24T14:48:35.860Z,30.01
2022-08-24T14:51:11.057Z,29.99
2022-08-24T14:53:57.338Z,29.99
2022-08-24T14:56:32.304Z,30.01
2022-08-24T14:59:03.119Z,29.73
2022-08-24T15:01:39.536Z,29.76
2022-08-24T15:04:30.765Z,29.85
2022-08-24T15:07:24.751Z,29.85
2022-08-24T15:09:53.123Z,30.11
2022-08-24T15:12:28.671Z,30.14
2022-08-24T15:15:00.195Z,30.17
2022-08-24T15:17:31.172Z,30.03
2022-08-24T15:20:03.353Z,30.27
2022-08-24T15:22:40.943Z,30.08
2022-08-24T15:25:14.732Z,30.13
2022-08-24T15:27:46.403Z,30.33
2022-08-24T15:30:22.287Z,30.39
2022-08-24T15:32:51.857Z,30.09
2022-08-24T15:35:30.237Z,30.20
2022-08-24T15:37:59.375Z,30.43
2022-08-24T15:40:29.747Z,30.46
2022-08-24T15:42:58.687Z,30.46
2022-08-24T15:45:26.412Z,30.52
2022-08-24T15:47:54.143Z,30.53
2022-08-24T15:50:23.852Z,30.56
2022-08-24T15:52:52.886Z,30.55
2022-08-24T15:55:41.479Z,30.50
2022-08-24T15:58:28.620Z,30.62
2022-08-24T16:01:18.276Z,30.62
2022-08-24T16:03:47.373Z,30.63
2022-08-24T16:06:21.363Z,30.67
2022-08-24T16:09:00.403Z,30.54
2022-08-24T16:11:32.151Z,30.70
2022-08-24T16:13:59.968Z,30.72
2022-08-24T16:16:39.053Z,30.57
2022-08-24T16:19:08.640Z,30.67
2022-08-24T16:21:38.760Z,30.52
2022-08-24T16:24:08.431Z,30.80
2022-08-24T16:31:51.849Z,30.65
2022-08-24T16:34:23.446Z,30.89
2022-08-24T16:36:51.167Z,30.88
2022-08-24T16:39:18.871Z,30.91
2022-08-24T16:41:47.119Z,30.90
2022-08-24T16:44:15.018Z,30.89
2022-08-24T16:46:42.748Z,30.92
2022-08-24T16:49:17.243Z,30.91
2022-08-24T16:51:45.506Z,30.89
2022-08-24T16:54:13.459Z,30.87
2022-08-24T16:56:42.609Z,30.69
2022-08-24T16:59:10.562Z,30.79
2022-08-24T17:01:38.397Z,30.75
2022-08-24T17:04:06.136Z,30.75
2022-08-24T17:06:35.196Z,30.72
2022-08-24T17:09:02.917Z,30.49
2022-08-24T17:11:30.992Z,30.68
2022-08-24T17:13:58.679Z,30.74
2022-08-24T17:16:26.458Z,30.75
2022-08-24T17:18:54.179Z,30.77
2022-08-24T17:21:23.326Z,30.77
2022-08-24T17:23:52.363Z,30.79
2022-08-24T17:26:21.767Z,30.81
2022-08-24T17:28:50.201Z,30.69
2022-08-24T17:31:17.969Z,30.82
2022-08-24T17:33:45.710Z,30.82
2022-08-24T17:36:15.712Z,30.82
2022-08-24T17:38:46.180Z,30.82
2022-08-24T17:41:15.555Z,30.81
2022-08-24T17:43:46.929Z,30.79
2022-08-24T17:46:14.998Z,30.78
2022-08-24T17:48:43.402Z,30.47
2022-08-24T17:51:11.142Z,30.70
2022-08-24T17:53:38.837Z,30.62
2022-08-24T17:56:07.834Z,29.94
2022-08-24T17:58:57.387Z,30.51
2022-08-24T18:01:25.238Z,29.93
2022-08-24T18:03:53.062Z,30.38
2022-08-24T18:06:20.932Z,30.34
2022-08-24T18:08:48.660Z,30.29
2022-08-24T18:11:16.378Z,30.25
2022-08-24T18:13:45.416Z,30.22
2022-08-24T18:16:16.247Z,29.80
2022-08-24T18:18:44.025Z,30.14
2022-08-24T18:21:11.743Z,30.10
2022-08-24T18:23:43.576Z,30.08
2022-08-24T18:26:11.447Z,30.03
2022-08-24T18:28:39.171Z,29.91
2022-08-24T18:31:11.621Z,29.98
2022-08-24T18:33:43.117Z,29.57
2022-08-24T18:36:12.096Z,29.93
2022-08-24T18:38:40.441Z,29.89
2022-08-24T18:41:08.155Z,29.86
2022-08-24T18:43:36.018Z,29.82
2022-08-24T18:46:04.850Z,29.83
2022-08-24T18:48:33.941Z,29.80
2022-08-24T18:51:02.581Z,29.77
2022-08-24T18:53:30.329Z,29.75
2022-08-24T18:56:00.622Z,29.73
2022-08-24T18:58:32.835Z,29.68
2022-08-24T19:01:00.634Z,29.67
2022-08-24T19:03:28.480Z,29.65
2022-08-24T19:05:57.548Z,29.62
2022-08-24T19:08:25.273Z,29.60
2022-08-24T19:10:53.017Z,29.59
2022-08-24T19:13:20.740Z,29.56
2022-08-24T19:15:48.646Z,29.53
2022-08-24T19:18:16.778Z,29.52
2022-08-24T19:20:48.298Z,29.50
2022-08-24T19:23:21.083Z,29.48
2022-08-24T19:25:48.885Z,29.45
2022-08-24T19:28:16.647Z,29.39
2022-08-24T19:30:44.637Z,29.24
2022-08-24T19:33:22.220Z,29.29
2022-08-24T19:35:50.193Z,29.37
2022-08-24T19:38:24.642Z,29.35
2022-08-24T19:40:53.419Z,29.32
2022-08-24T19:43:21.115Z,29.30
2022-08-24T19:46:02.362Z,29.29
2022-08-24T19:48:30.151Z,29.28
2022-08-24T19:50:59.868Z,29.27
2022-08-24T19:53:28.711Z,29.22
2022-08-24T19:55:56.452Z,29.19
2022-08-24T19:58:25.154Z,28.85
2022-08-24T20:00:56.842Z,28.77
2022-08-24T20:03:24.599Z,29.17
2022-08-24T20:05:52.336Z,29.16
2022-08-24T20:08:20.265Z,29.14
2022-08-24T20:10:49.803Z,29.12
2022-08-24T20:13:17.662Z,29.11
2022-08-24T20:15:46.284Z,29.09
2022-08-24T20:18:14.712Z,29.08
2022-08-24T20:20:42.503Z,29.07
2022-08-24T20:23:10.199Z,29.01
2022-08-24T20:25:38.271Z,29.00
2022-08-24T20:28:28.094Z,29.01
2022-08-24T20:30:55.611Z,29.00
2022-08-24T20:33:23.775Z,28.94
2022-08-24T20:35:51.662Z,28.98
2022-08-24T20:38:20.205Z,28.97
2022-08-24T20:40:48.447Z,28.58
2022-08-24T20:43:18.071Z,28.94
2022-08-24T20:45:45.802Z,28.93
2022-08-24T20:48:13.897Z,28.93
2022-08-24T20:50:43.459Z,28.47
2022-08-24T20:53:11.487Z,28.87
2022-08-24T20:55:39.542Z,28.86
2022-08-24T20:58:07.251Z,28.85
2022-08-24T21:00:36.826Z,28.85
2022-08-24T21:03:04.850Z,28.83
2022-08-24T21:05:32.763Z,28.82
2022-08-24T21:08:00.460Z,28.80
2022-08-24T21:10:28.245Z,28.78
2022-08-24T21:12:56.051Z,28.78
2022-08-24T21:15:23.781Z,28.76
2022-08-24T21:17:52.875Z,28.34
2022-08-24T21:20:20.702Z,28.74
2022-08-24T21:22:48.663Z,28.72
2022-08-24T21:25:16.975Z,28.62
2022-08-24T21:27:45.552Z,28.69
2022-08-24T21:30:15.311Z,28.28
2022-08-24T21:33:00.561Z,28.65
2022-08-24T21:35:29.682Z,28.64
2022-08-24T21:37:59.131Z,28.62
2022-08-24T21:40:27.198Z,28.62
2022-08-24T21:42:55.001Z,28.60
2022-08-24T21:45:22.703Z,28.60
2022-08-24T21:47:50.426Z,28.60
2022-08-24T21:50:19.622Z,28.01
2022-08-24T21:52:54.654Z,28.56
2022-08-24T21:55:22.933Z,28.35
2022-08-24T21:57:50.908Z,28.53
2022-08-24T22:00:19.387Z,28.53
2022-08-24T22:02:47.490Z,28.51
2022-08-24T22:05:15.309Z,28.51
2022-08-24T22:07:43.101Z,28.50
2022-08-24T22:10:12.946Z,28.49
2022-08-24T22:12:40.484Z,28.43
2022-08-24T22:15:09.063Z,28.43
2022-08-24T22:17:36.851Z,28.42
2022-08-24T22:20:05.052Z,28.43
2022-08-24T22:22:32.948Z,28.37
2022-08-24T22:25:00.892Z,28.40
2022-08-24T22:27:29.970Z,28.40
2022-08-24T22:29:58.777Z,28.38
2022-08-24T22:32:26.626Z,28.38
2022-08-24T22:34:54.324Z,28.38
2022-08-24T22:37:22.043Z,28.38
2022-08-24T22:39:49.782Z,28.37
2022-08-24T22:42:17.660Z,28.36
2022-08-24T22:44:46.771Z,28.33
2022-08-24T22:47:15.163Z,28.33
2022-08-24T22:49:44.349Z,27.68
2022-08-24T22:52:13.276Z,27.88
2022-08-24T22:54:41.120Z,27.86
2022-08-24T22:57:08.938Z,28.30
2022-08-24T22:59:38.186Z,28.31
2022-08-24T23:02:08.616Z,28.30
2022-08-24T23:04:38.335Z,28.26
2022-08-24T23:07:06.550Z,28.26
2022-08-24T23:09:44.111Z,28.24
2022-08-24T23:12:14.204Z,28.23
2022-08-24T23:14:43.495Z,28.22
2022-08-24T23:17:12.598Z,28.20
2022-08-24T23:20:09.265Z,28.18
2022-08-24T23:22:38.365Z,27.66
2022-08-24T23:25:06.642Z,28.17
2022-08-24T23:27:38.427Z,28.16
2022-08-24T23:30:08.204Z,28.15
2022-08-24T23:32:37.278Z,28.09
2022-08-24T23:35:05.678Z,28.13
2022-08-24T23:37:33.436Z,28.12
2022-08-24T23:40:01.350Z,28.12
2022-08-24T23:42:29.206Z,28.11
2022-08-24T23:44:57.443Z,28.09
2022-08-24T23:47:25.168Z,28.07
2022-08-24T23:49:55.506Z,28.08
2022-08-24T23:52:27.234Z,28.05
2022-08-24T23:55:03.557Z,28.04
2022-08-24T23:57:44.360Z,28.01
